createdAt,value
2023-03-20T00:01:31.853Z,46.30
2023-03-20T00:04:00.162Z,46.10
2023-03-20T00:06:29.478Z,59.42
2023-03-20T00:08:57.980Z,49.47
2023-03-20T00:11:30.930Z,59.30
2023-03-20T00:14:06.029Z,43.72
2023-03-20T00:16:39.852Z,48.13
2023-03-20T00:19:15.191Z,37.63
2023-03-20T00:21:43.756Z,43.15
2023-03-20T00:24:11.941Z,36.80
2023-03-20T00:26:41.150Z,46.60
2023-03-20T00:29:21.915Z,47.95
2023-03-20T00:31:50.278Z,46.95
2023-03-20T00:34:20.932Z,50.17
2023-03-20T00:36:49.384Z,53.45
2023-03-20T00:39:17.617Z,43.38
2023-03-20T00:41:59.645Z,46.60
2023-03-20T00:44:31.099Z,61.33
2023-03-20T00:47:02.364Z,53.95
2023-03-20T00:49:33.640Z,52.33
2023-03-20T00:52:04.422Z,51.20
2023-03-20T00:54:33.318Z,49.67
2023-03-20T00:57:09.680Z,49.78
2023-03-20T00:59:41.721Z,43.92
2023-03-20T01:04:42.020Z,45.92
2023-03-20T01:07:15.296Z,52.83
2023-03-20T01:09:43.650Z,58.33
2023-03-20T01:12:13.520Z,47.00
2023-03-20T01:14:43.810Z,49.20
2023-03-20T01:17:20.126Z,46.70
2023-03-20T01:19:48.591Z,44.22
2023-03-20T01:22:17.384Z,45.28
2023-03-20T01:24:46.076Z,47.05
2023-03-20T01:27:16.398Z,42.95
2023-03-20T01:29:45.246Z,54.35
2023-03-20T01:32:17.549Z,56.00
2023-03-20T01:34:49.350Z,47.88
2023-03-20T01:37:28.696Z,43.08
2023-03-20T01:40:02.183Z,51.42
2023-03-20T01:42:33.912Z,47.65
2023-03-20T01:45:02.321Z,47.13
2023-03-20T01:47:31.031Z,39.83
2023-03-20T01:50:23.287Z,48.10
2023-03-20T01:53:08.706Z,55.90
2023-03-20T01:55:44.145Z,47.95
2023-03-20T01:58:27.648Z,58.65
2023-03-20T02:03:24.762Z,45.90
2023-03-20T02:06:31.857Z,60.05
2023-03-20T02:09:15.771Z,38.60
2023-03-20T02:11:46.992Z,50.67
2023-03-20T02:14:19.113Z,45.22
2023-03-20T02:16:59.308Z,47.13
2023-03-20T02:20:22.663Z,53.53
2023-03-20T02:23:28.399Z,58.47
2023-03-20T02:26:30.531Z,49.55
2023-03-20T02:29:23.937Z,53.13
2023-03-20T02:31:52.409Z,53.70
2023-03-20T02:35:08.748Z,62.47
2023-03-20T02:38:07.576Z,57.88
2023-03-20T02:40:54.167Z,55.10
2023-03-20T02:43:38.415Z,52.72
2023-03-20T02:46:15.965Z,58.20
2023-03-20T02:48:53.754Z,75.65
2023-03-20T02:51:31.499Z,78.97
2023-03-20T02:54:29.171Z,56.65
2023-03-20T02:57:26.971Z,50.17
2023-03-20T03:00:09.527Z,67.45
2023-03-20T03:03:04.256Z,68.63
2023-03-20T03:05:45.137Z,40.63
2023-03-20T03:08:18.456Z,62.83
2023-03-20T03:10:52.607Z,48.20
2023-03-20T03:13:25.558Z,71.47
2023-03-20T03:15:58.376Z,50.90
2023-03-20T03:18:27.710Z,47.45
2023-03-20T03:21:00.518Z,52.72
2023-03-20T03:23:36.645Z,48.35
2023-03-20T03:26:07.672Z,56.78
2023-03-20T03:28:46.756Z,55.47
2023-03-20T03:31:18.701Z,45.78
2023-03-20T03:33:51.022Z,46.60
2023-03-20T03:39:05.575Z,46.35
2023-03-20T03:41:36.870Z,47.55
2023-03-20T03:44:18.025Z,67.95
2023-03-20T03:46:54.958Z,98.80
2023-03-20T03:49:31.587Z,49.38
2023-03-20T03:52:07.206Z,40.17
2023-03-20T03:54:39.403Z,40.30
2023-03-20T03:57:42.290Z,61.45
2023-03-20T04:00:21.049Z,52.15
2023-03-20T04:02:53.601Z,56.95
2023-03-20T04:05:23.481Z,65.50
2023-03-20T04:07:58.747Z,59.05
2023-03-20T04:10:27.070Z,47.20
2023-03-20T04:12:55.347Z,65.60
2023-03-20T04:15:23.576Z,111.95
2023-03-20T04:17:51.856Z,187.00
2023-03-20T04:20:20.450Z,215.77
2023-03-20T04:22:49.221Z,177.63
2023-03-20T04:25:22.721Z,140.95
2023-03-20T04:27:53.758Z,85.93
2023-03-20T04:30:30.829Z,117.50
2023-03-20T04:33:17.298Z,173.27
2023-03-20T04:36:06.195Z,172.73
2023-03-20T04:38:34.439Z,187.95
2023-03-20T04:41:04.604Z,151.00
2023-03-20T04:43:33.045Z,205.80
2023-03-20T04:46:01.673Z,173.23
2023-03-20T04:48:30.222Z,178.57
2023-03-20T04:50:58.761Z,123.18
2023-03-20T04:53:38.660Z,99.07
2023-03-20T04:56:07.447Z,85.72
2023-03-20T04:58:36.361Z,81.07
2023-03-20T05:01:06.149Z,67.00
2023-03-20T05:03:34.400Z,64.65
2023-03-20T05:06:02.952Z,74.90
2023-03-20T05:08:31.803Z,64.30
2023-03-20T05:11:02.010Z,57.22
2023-03-20T05:13:48.946Z,58.53
2023-03-20T05:16:26.206Z,56.85
2023-03-20T05:19:21.037Z,71.57
2023-03-20T05:22:09.412Z,73.30
2023-03-20T05:25:00.093Z,74.80
2023-03-20T05:27:47.547Z,63.63
2023-03-20T05:30:34.083Z,63.42
2023-03-20T05:33:23.729Z,66.82
2023-03-20T05:36:12.163Z,59.92
2023-03-20T05:39:03.619Z,69.72
2023-03-20T05:41:54.837Z,52.50
2023-03-20T05:44:40.851Z,58.40
2023-03-20T05:47:35.087Z,57.42
2023-03-20T05:50:17.364Z,52.17
2023-03-20T05:53:08.238Z,50.10
2023-03-20T05:55:48.248Z,46.67
2023-03-20T05:58:47.187Z,62.72
2023-03-20T06:01:40.670Z,48.60
2023-03-20T06:04:26.265Z,44.50
2023-03-20T06:07:12.804Z,48.85
2023-03-20T06:09:44.292Z,49.80
2023-03-20T06:26:01.100Z,51.70
2023-03-20T06:28:31.084Z,49.78
2023-03-20T06:31:05.815Z,47.45
2023-03-20T06:33:35.011Z,60.50
2023-03-20T06:36:04.488Z,50.40
2023-03-20T06:38:33.735Z,33.15
2023-03-20T06:41:07.996Z,51.85
2023-03-20T06:43:37.071Z,45.72
2023-03-20T06:46:06.075Z,36.22
2023-03-20T06:48:35.180Z,35.17
2023-03-20T06:53:40.200Z,51.40
2023-03-20T06:56:14.081Z,54.28
2023-03-20T06:58:43.032Z,55.33
2023-03-20T07:01:16.803Z,64.75
2023-03-20T07:03:45.297Z,61.67
2023-03-20T07:06:14.799Z,60.72
2023-03-20T07:08:43.655Z,46.55
2023-03-20T07:11:12.240Z,49.55
2023-03-20T07:13:40.980Z,54.45
2023-03-20T07:16:20.473Z,62.40
2023-03-20T07:18:49.087Z,68.35
2023-03-20T07:21:23.587Z,68.22
2023-03-20T07:23:52.887Z,137.15
2023-03-20T07:26:21.220Z,176.70
2023-03-20T07:28:49.466Z,128.68
2023-03-20T07:31:25.436Z,105.38
2023-03-20T07:34:23.103Z,62.97
2023-03-20T07:36:52.482Z,47.33
2023-03-20T07:39:22.800Z,43.58
2023-03-20T07:42:19.684Z,41.40
2023-03-20T07:44:58.650Z,39.38
2023-03-20T07:47:27.113Z,34.47
2023-03-20T07:49:55.344Z,43.65
2023-03-20T07:52:24.273Z,30.33
2023-03-20T07:54:54.213Z,36.08
2023-03-20T07:57:22.654Z,44.90
2023-03-20T07:59:51.017Z,37.38
2023-03-20T08:02:19.600Z,31.67
2023-03-20T08:04:47.994Z,46.97
2023-03-20T08:07:16.437Z,42.92
2023-03-20T08:09:45.050Z,48.50
2023-03-20T08:12:13.433Z,51.58
2023-03-20T08:14:41.719Z,40.13
2023-03-20T08:17:14.879Z,54.28
2023-03-20T08:19:44.969Z,54.30
2023-03-20T08:22:13.453Z,54.00
2023-03-20T08:24:41.871Z,47.25
2023-03-20T08:27:10.107Z,57.20
2023-03-20T08:29:38.624Z,44.67
2023-03-20T08:32:07.181Z,60.47
2023-03-20T08:34:35.432Z,55.97
2023-03-20T08:37:07.477Z,46.45
2023-03-20T08:39:35.721Z,53.90
2023-03-20T08:42:04.138Z,74.63
2023-03-20T08:44:32.515Z,138.98
2023-03-20T08:47:00.622Z,128.82
2023-03-20T08:49:29.084Z,188.23
2023-03-20T08:51:57.322Z,132.70
2023-03-20T08:54:25.596Z,92.90
2023-03-20T08:56:53.945Z,66.03
2023-03-20T08:59:22.323Z,61.28
2023-03-20T09:01:50.746Z,47.45
2023-03-20T09:04:19.376Z,47.50
2023-03-20T09:06:48.094Z,48.72
2023-03-20T09:09:16.359Z,93.57
2023-03-20T09:11:44.600Z,98.95
2023-03-20T09:14:13.336Z,37.38
2023-03-20T09:16:41.665Z,41.85
2023-03-20T09:19:10.210Z,48.05
2023-03-20T09:21:38.535Z,47.25
2023-03-20T09:24:07.436Z,47.03
2023-03-20T09:26:35.759Z,39.50
2023-03-20T09:29:04.467Z,43.70
2023-03-20T09:31:33.019Z,44.85
2023-03-20T09:34:01.426Z,35.60
2023-03-20T09:36:29.807Z,34.17
2023-03-20T09:38:58.208Z,54.63
2023-03-20T09:41:28.223Z,55.10
2023-03-20T09:44:26.786Z,37.33
2023-03-20T09:47:20.282Z,66.03
2023-03-20T09:50:23.694Z,55.80
2023-03-20T09:53:16.961Z,54.30
2023-03-20T09:55:45.903Z,63.30
2023-03-20T09:58:21.284Z,59.53
2023-03-20T10:00:50.031Z,60.00
2023-03-20T10:03:43.633Z,80.88
2023-03-20T10:06:17.397Z,71.32
2023-03-20T10:08:47.189Z,63.25
2023-03-20T10:11:21.391Z,49.35
2023-03-20T10:13:56.387Z,48.08
2023-03-20T10:16:48.572Z,60.90
2023-03-20T10:19:22.691Z,70.75
2023-03-20T10:22:13.380Z,59.05
2023-03-20T10:24:53.081Z,49.08
2023-03-20T10:27:34.462Z,59.13
2023-03-20T10:30:35.459Z,82.43
2023-03-20T10:33:22.386Z,71.55
2023-03-20T10:36:18.060Z,44.58
2023-03-20T10:38:46.437Z,41.63
2023-03-20T10:41:21.904Z,45.53
2023-03-20T10:43:53.416Z,42.92
2023-03-20T10:46:25.075Z,52.90
2023-03-20T10:49:05.206Z,43.85
2023-03-20T10:51:59.238Z,48.42
2023-03-20T10:54:42.978Z,37.15
2023-03-20T10:57:32.340Z,50.70
2023-03-20T11:00:01.237Z,38.55
2023-03-20T11:02:31.230Z,45.40
2023-03-20T11:05:20.627Z,51.78
2023-03-20T11:07:51.991Z,42.08
2023-03-20T11:10:20.351Z,36.30
2023-03-20T11:12:50.851Z,51.80
2023-03-20T11:15:24.950Z,43.85
2023-03-20T11:18:01.736Z,43.08
2023-03-20T11:20:54.621Z,42.67
2023-03-20T11:23:28.768Z,44.80
2023-03-20T11:26:06.320Z,44.10
2023-03-20T11:28:42.666Z,38.40
2023-03-20T11:31:14.061Z,67.75
2023-03-20T11:33:45.850Z,48.28
2023-03-20T11:36:25.893Z,48.15
2023-03-20T11:39:04.373Z,43.60
2023-03-20T11:41:33.644Z,41.22
2023-03-20T11:44:01.967Z,61.10
2023-03-20T11:46:30.205Z,38.50
2023-03-20T11:49:28.013Z,35.58
2023-03-20T11:52:02.228Z,39.85
2023-03-20T11:54:31.485Z,53.08
2023-03-20T11:57:01.189Z,47.65
2023-03-20T11:59:35.078Z,45.05
2023-03-20T12:02:14.516Z,68.43
2023-03-20T12:04:42.979Z,66.32
2023-03-20T12:07:27.266Z,38.97
2023-03-20T12:10:06.167Z,42.60
2023-03-20T12:12:52.468Z,48.95
2023-03-20T12:15:26.472Z,57.15
2023-03-20T12:18:06.592Z,49.03
2023-03-20T12:21:18.676Z,48.75
2023-03-20T12:23:58.821Z,39.30
2023-03-20T12:26:55.403Z,49.03
2023-03-20T12:29:30.854Z,40.33
2023-03-20T12:32:15.988Z,52.30
2023-03-20T12:34:54.121Z,42.35
2023-03-20T12:37:23.431Z,47.70
2023-03-20T12:40:01.310Z,40.33
2023-03-20T12:42:42.846Z,45.67
2023-03-20T12:45:23.547Z,55.95
2023-03-20T12:48:19.335Z,39.38
2023-03-20T12:51:13.818Z,41.97
2023-03-20T12:53:53.798Z,50.25
2023-03-20T12:56:52.113Z,46.42
2023-03-20T12:59:35.652Z,53.25
2023-03-20T13:02:42.482Z,47.47
2023-03-20T13:05:22.903Z,56.22
2023-03-20T13:08:06.261Z,48.53
2023-03-20T13:10:52.003Z,56.42
2023-03-20T13:13:41.094Z,37.92
2023-03-20T13:16:53.917Z,45.90
2023-03-20T13:19:40.381Z,61.63
2023-03-20T13:22:20.787Z,54.38
2023-03-20T13:24:56.219Z,42.53
2023-03-20T13:27:43.452Z,47.17
2023-03-20T13:30:31.648Z,44.42
2023-03-20T13:33:21.340Z,45.05
2023-03-20T13:36:20.851Z,50.20
2023-03-20T13:38:54.878Z,46.97
2023-03-20T13:41:25.145Z,36.42
2023-03-20T13:44:05.115Z,37.58
2023-03-20T13:47:02.468Z,42.17
2023-03-20T13:50:02.924Z,47.90
2023-03-20T13:52:41.196Z,55.75
2023-03-20T13:55:18.831Z,49.03
2023-03-20T13:58:08.963Z,38.38
2023-03-20T14:00:49.811Z,43.95
2023-03-20T14:03:38.373Z,53.03
2023-03-20T14:06:35.306Z,41.90
2023-03-20T14:09:03.659Z,51.13
2023-03-20T14:11:40.185Z,49.85
2023-03-20T14:14:13.903Z,69.30
2023-03-20T14:16:43.025Z,49.58
2023-03-20T14:19:24.963Z,40.88
2023-03-20T14:21:57.502Z,42.63
2023-03-20T14:24:28.056Z,56.35
2023-03-20T14:27:05.798Z,65.90
2023-03-20T14:29:39.017Z,51.03
2023-03-20T14:32:16.329Z,55.58
2023-03-20T14:34:53.661Z,53.00
2023-03-20T14:37:59.835Z,50.80
2023-03-20T14:40:32.081Z,58.38
2023-03-20T14:43:05.161Z,51.28
2023-03-20T14:45:38.017Z,41.38
2023-03-20T14:48:19.506Z,64.47
2023-03-20T14:50:47.656Z,52.67
2023-03-20T14:53:34.233Z,47.65
2023-03-20T14:56:15.484Z,50.10
2023-03-20T14:58:56.295Z,47.40
2023-03-20T15:01:41.206Z,45.03
2023-03-20T15:04:23.722Z,54.13
2023-03-20T15:07:38.285Z,40.78
2023-03-20T15:10:08.408Z,39.92
2023-03-20T15:12:38.829Z,53.10
2023-03-20T15:15:09.241Z,45.15
2023-03-20T15:17:46.847Z,35.78
2023-03-20T15:20:24.533Z,48.58
2023-03-20T15:22:58.348Z,45.78
2023-03-20T15:25:33.816Z,55.47
2023-03-20T15:28:05.389Z,58.33
2023-03-20T15:30:38.076Z,37.90
2023-03-20T15:33:22.697Z,55.17
2023-03-20T15:35:51.593Z,39.40
2023-03-20T15:38:20.972Z,49.85
2023-03-20T15:40:51.320Z,52.67
2023-03-20T15:43:27.440Z,53.53
2023-03-20T15:46:16.355Z,70.35
2023-03-20T15:48:50.272Z,53.13
2023-03-20T15:51:22.984Z,42.80
2023-03-20T15:53:52.767Z,60.47
2023-03-20T15:56:26.178Z,60.53
2023-03-20T15:58:56.519Z,44.72
2023-03-20T16:01:26.948Z,57.72
2023-03-20T16:04:00.190Z,46.90
2023-03-20T16:06:29.073Z,56.92
2023-03-20T16:09:02.795Z,38.08
2023-03-20T16:11:42.715Z,52.75
2023-03-20T16:14:23.493Z,44.85
2023-03-20T16:16:55.335Z,48.83
2023-03-20T16:19:25.790Z,55.22
2023-03-20T16:22:19.916Z,51.83
2023-03-20T16:24:55.560Z,35.15
2023-03-20T16:27:30.869Z,57.22
2023-03-20T16:29:59.972Z,57.63
2023-03-20T16:32:50.461Z,59.33
2023-03-20T16:35:22.270Z,55.95
2023-03-20T16:37:56.039Z,51.60
2023-03-20T16:40:32.163Z,48.70
2023-03-20T16:43:20.230Z,45.72
2023-03-20T16:45:54.231Z,48.17
2023-03-20T16:48:32.875Z,44.88
2023-03-20T16:51:19.048Z,46.97
2023-03-20T16:53:50.347Z,47.55
2023-03-20T16:56:33.468Z,59.30
2023-03-20T16:59:17.858Z,44.42
2023-03-20T17:01:48.107Z,46.03
2023-03-20T17:04:37.216Z,50.95
2023-03-20T17:07:19.734Z,48.90
2023-03-20T17:10:13.293Z,61.30
2023-03-20T17:12:42.657Z,45.10
2023-03-20T17:15:19.292Z,61.55
2023-03-20T17:17:47.995Z,60.50
2023-03-20T17:20:25.276Z,47.30
2023-03-20T17:22:54.273Z,48.15
2023-03-20T17:25:23.044Z,61.38
2023-03-20T17:27:51.642Z,73.63
2023-03-20T17:30:23.319Z,54.75
2023-03-20T17:35:20.344Z,48.85
2023-03-20T17:37:48.890Z,47.67
2023-03-20T17:40:23.571Z,63.95
2023-03-20T17:42:52.040Z,84.45
2023-03-20T17:45:21.181Z,70.82
2023-03-20T17:47:49.889Z,81.00
2023-03-20T17:50:20.514Z,72.43
2023-03-20T17:52:48.929Z,63.30
2023-03-20T17:55:17.520Z,46.22
2023-03-20T17:57:46.215Z,47.95
2023-03-20T18:00:20.233Z,54.90
2023-03-20T18:02:49.413Z,55.83
2023-03-20T18:05:19.781Z,67.60
2023-03-20T18:07:48.395Z,62.63
2023-03-20T18:10:30.197Z,56.17
2023-03-20T18:12:59.381Z,68.35
2023-03-20T18:15:27.594Z,78.50
2023-03-20T18:17:56.097Z,76.43
2023-03-20T18:20:33.231Z,82.78
2023-03-20T18:23:01.593Z,70.65
2023-03-20T18:25:30.347Z,67.88
2023-03-20T18:28:00.778Z,61.28
2023-03-20T18:30:37.616Z,62.58
2023-03-20T18:33:07.149Z,65.07
